sensor_id;sensor_type;location;lat;lon;timestamp;P1;durP1;ratioP1;P2;durP2;ratioP2
5014;SDS011;2526;51.060;4.228;2022-08-04T00:02:09;5.45;;;2.08;;
5014;SDS011;2526;51.060;4.228;2022-08-04T00:04:48;6.20;;;1.73;;
5014;SDS011;2526;51.060;4.228;2022-08-04T00:07:25;3.92;;;2.13;;
5014;SDS011;2526;51.060;4.228;2022-08-04T00:09:57;7.18;;;1.90;;
5014;SDS011;2526;51.060;4.228;2022-08-04T00:12:24;2.05;;;1.75;;
5014;SDS011;2526;51.060;4.228;2022-08-04T00:14:51;3.58;;;1.98;;
5014;SDS011;2526;51.060;4.228;2022-08-04T00:17:20;2.00;;;1.58;;
5014;SDS011;2526;51.060;4.228;2022-08-04T00:19:48;5.13;;;2.05;;
5014;SDS011;2526;51.060;4.228;2022-08-04T00:22:18;9.07;;;2.28;;
5014;SDS011;2526;51.060;4.228;2022-08-04T00:24:46;11.27;;;2.35;;
5014;SDS011;2526;51.060;4.228;2022-08-04T00:27:12;11.18;;;2.00;;
5014;SDS011;2526;51.060;4.228;2022-08-04T00:29:38;3.85;;;1.92;;
5014;SDS011;2526;51.060;4.228;2022-08-04T00:32:03;3.20;;;1.88;;
5014;SDS011;2526;51.060;4.228;2022-08-04T00:34:30;2.63;;;1.67;;
5014;SDS011;2526;51.060;4.228;2022-08-04T00:36:56;4.22;;;2.67;;
5014;SDS011;2526;51.060;4.228;2022-08-04T00:39:22;2.45;;;1.67;;
5014;SDS011;2526;51.060;4.228;2022-08-04T01:02:50;9.13;;;1.33;;
5014;SDS011;2526;51.060;4.228;2022-08-04T01:05:06;4.32;;;1.02;;
5014;SDS011;2526;51.060;4.228;2022-08-04T01:12:46;6.43;;;2.10;;
5014;SDS011;2526;51.060;4.228;2022-08-04T01:17:52;11.10;;;2.38;;
5014;SDS011;2526;51.060;4.228;2022-08-04T01:20:20;6.97;;;2.08;;
5014;SDS011;2526;51.060;4.228;2022-08-04T01:25:56;2.75;;;1.55;;
5014;SDS011;2526;51.060;4.228;2022-08-04T01:28:40;14.45;;;2.35;;
5014;SDS011;2526;51.060;4.228;2022-08-04T01:33:55;5.07;;;1.92;;
5014;SDS011;2526;51.060;4.228;2022-08-04T01:36:24;14.00;;;3.13;;
5014;SDS011;2526;51.060;4.228;2022-08-04T01:38:49;3.70;;;1.88;;
5014;SDS011;2526;51.060;4.228;2022-08-04T01:41:16;2.72;;;1.40;;
5014;SDS011;2526;51.060;4.228;2022-08-04T01:43:44;5.05;;;2.60;;
5014;SDS011;2526;51.060;4.228;2022-08-04T01:46:13;5.25;;;2.30;;
5014;SDS011;2526;51.060;4.228;2022-08-04T01:48:40;6.45;;;1.98;;
5014;SDS011;2526;51.060;4.228;2022-08-04T01:51:07;4.35;;;2.42;;
5014;SDS011;2526;51.060;4.228;2022-08-04T01:53:34;6.60;;;2.08;;
5014;SDS011;2526;51.060;4.228;2022-08-04T01:56:00;5.25;;;2.63;;
5014;SDS011;2526;51.060;4.228;2022-08-04T01:58:27;4.00;;;2.50;;
5014;SDS011;2526;51.060;4.228;2022-08-04T02:01:01;3.75;;;2.38;;
5014;SDS011;2526;51.060;4.228;2022-08-04T02:03:27;5.78;;;2.35;;
5014;SDS011;2526;51.060;4.228;2022-08-04T02:05:54;5.93;;;3.40;;
5014;SDS011;2526;51.060;4.228;2022-08-04T02:08:32;6.90;;;2.80;;
5014;SDS011;2526;51.060;4.228;2022-08-04T02:11:14;4.50;;;2.22;;
5014;SDS011;2526;51.060;4.228;2022-08-04T02:21:24;5.60;;;3.05;;
5014;SDS011;2526;51.060;4.228;2022-08-04T02:23:50;7.45;;;3.47;;
5014;SDS011;2526;51.060;4.228;2022-08-04T02:26:17;3.53;;;2.25;;
5014;SDS011;2526;51.060;4.228;2022-08-04T02:28:55;8.57;;;3.00;;
5014;SDS011;2526;51.060;4.228;2022-08-04T02:31:32;5.90;;;2.00;;
5014;SDS011;2526;51.060;4.228;2022-08-04T02:36:30;4.38;;;2.05;;
5014;SDS011;2526;51.060;4.228;2022-08-04T02:38:59;6.07;;;1.80;;
5014;SDS011;2526;51.060;4.228;2022-08-04T02:41:26;6.00;;;1.30;;
5014;SDS011;2526;51.060;4.228;2022-08-04T02:43:54;11.13;;;2.50;;
5014;SDS011;2526;51.060;4.228;2022-08-04T02:46:20;3.97;;;1.80;;
5014;SDS011;2526;51.060;4.228;2022-08-04T02:48:47;7.03;;;1.92;;
5014;SDS011;2526;51.060;4.228;2022-08-04T02:51:14;9.63;;;2.60;;
5014;SDS011;2526;51.060;4.228;2022-08-04T02:53:40;4.78;;;2.47;;
5014;SDS011;2526;51.060;4.228;2022-08-04T02:56:06;10.43;;;2.15;;
5014;SDS011;2526;51.060;4.228;2022-08-04T02:58:33;8.25;;;2.45;;
5014;SDS011;2526;51.060;4.228;2022-08-04T03:00:59;3.45;;;2.40;;
5014;SDS011;2526;51.060;4.228;2022-08-04T03:16:46;2.53;;;1.58;;
5014;SDS011;2526;51.060;4.228;2022-08-04T03:29:59;2.60;;;1.80;;
5014;SDS011;2526;51.060;4.228;2022-08-04T03:42:52;2.70;;;1.45;;
5014;SDS011;2526;51.060;4.228;2022-08-04T04:00:39;11.13;;;1.52;;
5014;SDS011;2526;51.060;4.228;2022-08-04T04:24:19;6.20;;;2.67;;
5014;SDS011;2526;51.060;4.228;2022-08-04T04:29:54;10.48;;;1.98;;
5014;SDS011;2526;51.060;4.228;2022-08-04T04:32:22;3.90;;;1.30;;
5014;SDS011;2526;51.060;4.228;2022-08-04T04:49:32;7.05;;;2.17;;
5014;SDS011;2526;51.060;4.228;2022-08-04T04:52:05;7.80;;;1.58;;
5014;SDS011;2526;51.060;4.228;2022-08-04T04:54:37;3.72;;;1.63;;
5014;SDS011;2526;51.060;4.228;2022-08-04T04:57:06;7.25;;;2.30;;
5014;SDS011;2526;51.060;4.228;2022-08-04T04:59:33;4.25;;;1.73;;
5014;SDS011;2526;51.060;4.228;2022-08-04T05:07:17;10.55;;;3.13;;
5014;SDS011;2526;51.060;4.228;2022-08-04T05:10:05;13.63;;;2.33;;
5014;SDS011;2526;51.060;4.228;2022-08-04T05:15:06;3.10;;;1.83;;
5014;SDS011;2526;51.060;4.228;2022-08-04T05:17:34;7.63;;;2.25;;
5014;SDS011;2526;51.060;4.228;2022-08-04T05:20:07;3.00;;;1.75;;
5014;SDS011;2526;51.060;4.228;2022-08-04T05:25:42;1.98;;;1.63;;
5014;SDS011;2526;51.060;4.228;2022-08-04T05:28:11;6.90;;;2.45;;
5014;SDS011;2526;51.060;4.228;2022-08-04T05:30:34;5.40;;;2.45;;
5014;SDS011;2526;51.060;4.228;2022-08-04T05:33:02;6.88;;;2.88;;
5014;SDS011;2526;51.060;4.228;2022-08-04T05:40:37;4.63;;;1.90;;
5014;SDS011;2526;51.060;4.228;2022-08-04T05:43:04;7.20;;;2.17;;
5014;SDS011;2526;51.060;4.228;2022-08-04T05:45:32;4.82;;;2.20;;
5014;SDS011;2526;51.060;4.228;2022-08-04T05:47:58;7.15;;;2.50;;
5014;SDS011;2526;51.060;4.228;2022-08-04T05:50:25;9.27;;;2.72;;
5014;SDS011;2526;51.060;4.228;2022-08-04T05:52:51;4.68;;;1.90;;
5014;SDS011;2526;51.060;4.228;2022-08-04T05:55:20;20.08;;;3.75;;
5014;SDS011;2526;51.060;4.228;2022-08-04T05:57:46;6.97;;;3.15;;
5014;SDS011;2526;51.060;4.228;2022-08-04T06:00:12;5.22;;;3.00;;
5014;SDS011;2526;51.060;4.228;2022-08-04T06:02:38;5.50;;;2.65;;
5014;SDS011;2526;51.060;4.228;2022-08-04T06:05:05;9.05;;;1.92;;
5014;SDS011;2526;51.060;4.228;2022-08-04T06:07:32;4.75;;;2.60;;
5014;SDS011;2526;51.060;4.228;2022-08-04T06:09:57;14.18;;;3.17;;
5014;SDS011;2526;51.060;4.228;2022-08-04T06:12:29;5.53;;;2.65;;
5014;SDS011;2526;51.060;4.228;2022-08-04T06:14:57;20.08;;;3.22;;
5014;SDS011;2526;51.060;4.228;2022-08-04T06:17:25;5.80;;;2.92;;
5014;SDS011;2526;51.060;4.228;2022-08-04T06:19:55;7.60;;;2.42;;
5014;SDS011;2526;51.060;4.228;2022-08-04T06:22:21;6.28;;;3.58;;
5014;SDS011;2526;51.060;4.228;2022-08-04T06:24:47;5.32;;;3.55;;
5014;SDS011;2526;51.060;4.228;2022-08-04T06:27:14;5.07;;;2.67;;
5014;SDS011;2526;51.060;4.228;2022-08-04T06:29:41;6.70;;;3.17;;
5014;SDS011;2526;51.060;4.228;2022-08-04T06:32:07;8.02;;;4.25;;
5014;SDS011;2526;51.060;4.228;2022-08-04T06:34:53;12.23;;;3.60;;
5014;SDS011;2526;51.060;4.228;2022-08-04T06:37:19;10.10;;;4.20;;
5014;SDS011;2526;51.060;4.228;2022-08-04T06:39:45;5.22;;;3.13;;
5014;SDS011;2526;51.060;4.228;2022-08-04T06:42:11;9.93;;;3.30;;
5014;SDS011;2526;51.060;4.228;2022-08-04T06:44:37;6.13;;;4.25;;
5014;SDS011;2526;51.060;4.228;2022-08-04T06:47:03;6.60;;;5.07;;
5014;SDS011;2526;51.060;4.228;2022-08-04T06:49:30;10.65;;;5.60;;
5014;SDS011;2526;51.060;4.228;2022-08-04T06:51:56;11.02;;;5.38;;
5014;SDS011;2526;51.060;4.228;2022-08-04T06:54:22;7.97;;;3.78;;
5014;SDS011;2526;51.060;4.228;2022-08-04T06:56:47;9.23;;;5.28;;
5014;SDS011;2526;51.060;4.228;2022-08-04T06:59:14;15.32;;;8.13;;
5014;SDS011;2526;51.060;4.228;2022-08-04T07:01:40;16.90;;;9.27;;
5014;SDS011;2526;51.060;4.228;2022-08-04T07:04:06;14.15;;;8.50;;
5014;SDS011;2526;51.060;4.228;2022-08-04T07:06:32;11.40;;;5.22;;
5014;SDS011;2526;51.060;4.228;2022-08-04T07:08:57;13.15;;;6.80;;
5014;SDS011;2526;51.060;4.228;2022-08-04T07:11:23;12.32;;;6.95;;
5014;SDS011;2526;51.060;4.228;2022-08-04T07:13:49;15.20;;;7.32;;
5014;SDS011;2526;51.060;4.228;2022-08-04T07:16:15;18.17;;;9.27;;
5014;SDS011;2526;51.060;4.228;2022-08-04T07:18:42;14.05;;;7.03;;
5014;SDS011;2526;51.060;4.228;2022-08-04T07:21:08;16.85;;;8.60;;
5014;SDS011;2526;51.060;4.228;2022-08-04T07:23:34;13.73;;;8.32;;
5014;SDS011;2526;51.060;4.228;2022-08-04T07:25:59;19.95;;;8.20;;
5014;SDS011;2526;51.060;4.228;2022-08-04T07:28:25;13.25;;;7.07;;
5014;SDS011;2526;51.060;4.228;2022-08-04T07:30:53;11.27;;;8.35;;
5014;SDS011;2526;51.060;4.228;2022-08-04T07:33:19;20.02;;;9.38;;
5014;SDS011;2526;51.060;4.228;2022-08-04T07:35:45;15.57;;;10.30;;
5014;SDS011;2526;51.060;4.228;2022-08-04T07:38:11;23.55;;;10.55;;
5014;SDS011;2526;51.060;4.228;2022-08-04T07:40:37;19.48;;;10.25;;
5014;SDS011;2526;51.060;4.228;2022-08-04T07:43:03;16.08;;;9.43;;
5014;SDS011;2526;51.060;4.228;2022-08-04T07:45:29;28.42;;;14.93;;
5014;SDS011;2526;51.060;4.228;2022-08-04T07:47:54;19.75;;;11.68;;
5014;SDS011;2526;51.060;4.228;2022-08-04T07:50:20;15.98;;;10.02;;
5014;SDS011;2526;51.060;4.228;2022-08-04T07:52:46;28.13;;;11.00;;
5014;SDS011;2526;51.060;4.228;2022-08-04T07:55:12;19.95;;;10.00;;
5014;SDS011;2526;51.060;4.228;2022-08-04T07:57:38;15.95;;;10.05;;
5014;SDS011;2526;51.060;4.228;2022-08-04T08:00:04;15.80;;;9.65;;
5014;SDS011;2526;51.060;4.228;2022-08-04T08:02:30;16.80;;;11.52;;
5014;SDS011;2526;51.060;4.228;2022-08-04T08:04:56;14.38;;;8.98;;
5014;SDS011;2526;51.060;4.228;2022-08-04T08:07:21;15.57;;;8.93;;
5014;SDS011;2526;51.060;4.228;2022-08-04T08:09:47;13.88;;;9.32;;
5014;SDS011;2526;51.060;4.228;2022-08-04T08:12:12;15.73;;;7.53;;
5014;SDS011;2526;51.060;4.228;2022-08-04T08:14:38;19.85;;;7.60;;
5014;SDS011;2526;51.060;4.228;2022-08-04T08:17:04;12.07;;;7.85;;
5014;SDS011;2526;51.060;4.228;2022-08-04T08:19:30;9.70;;;5.85;;
5014;SDS011;2526;51.060;4.228;2022-08-04T08:21:55;14.30;;;6.18;;
5014;SDS011;2526;51.060;4.228;2022-08-04T08:24:21;8.45;;;6.13;;
5014;SDS011;2526;51.060;4.228;2022-08-04T08:26:47;11.20;;;6.90;;
5014;SDS011;2526;51.060;4.228;2022-08-04T08:29:12;21.08;;;10.15;;
5014;SDS011;2526;51.060;4.228;2022-08-04T08:31:39;22.60;;;11.98;;
5014;SDS011;2526;51.060;4.228;2022-08-04T08:34:04;20.13;;;12.18;;
5014;SDS011;2526;51.060;4.228;2022-08-04T08:36:45;21.38;;;12.10;;
5014;SDS011;2526;51.060;4.228;2022-08-04T08:44:16;26.52;;;17.98;;
5014;SDS011;2526;51.060;4.228;2022-08-04T08:49:22;20.80;;;15.85;;
5014;SDS011;2526;51.060;4.228;2022-08-04T08:52:03;29.48;;;18.58;;
5014;SDS011;2526;51.060;4.228;2022-08-04T08:57:10;27.73;;;16.58;;
5014;SDS011;2526;51.060;4.228;2022-08-04T09:09:48;24.77;;;14.77;;
5014;SDS011;2526;51.060;4.228;2022-08-04T09:12:25;17.42;;;13.75;;
5014;SDS011;2526;51.060;4.228;2022-08-04T09:17:29;20.60;;;13.68;;
5014;SDS011;2526;51.060;4.228;2022-08-04T09:19:56;20.02;;;14.43;;
5014;SDS011;2526;51.060;4.228;2022-08-04T09:27:57;23.15;;;16.48;;
5014;SDS011;2526;51.060;4.228;2022-08-04T09:33:48;24.55;;;17.67;;
5014;SDS011;2526;51.060;4.228;2022-08-04T09:35:48;21.83;;;14.90;;
5014;SDS011;2526;51.060;4.228;2022-08-04T09:38:24;23.83;;;16.15;;
5014;SDS011;2526;51.060;4.228;2022-08-04T09:46:00;23.83;;;15.90;;
5014;SDS011;2526;51.060;4.228;2022-08-04T09:48:38;19.60;;;14.13;;
5014;SDS011;2526;51.060;4.228;2022-08-04T09:51:10;23.15;;;14.93;;
5014;SDS011;2526;51.060;4.228;2022-08-04T09:56:22;19.67;;;12.15;;
5014;SDS011;2526;51.060;4.228;2022-08-04T09:58:50;22.05;;;13.90;;
5014;SDS011;2526;51.060;4.228;2022-08-04T10:01:19;15.45;;;11.00;;
5014;SDS011;2526;51.060;4.228;2022-08-04T10:03:50;17.50;;;12.52;;
5014;SDS011;2526;51.060;4.228;2022-08-04T10:11:21;20.52;;;12.70;;
5014;SDS011;2526;51.060;4.228;2022-08-04T10:13:51;23.95;;;12.93;;
5014;SDS011;2526;51.060;4.228;2022-08-04T10:19:39;19.83;;;14.77;;
5014;SDS011;2526;51.060;4.228;2022-08-04T10:24:35;10.25;;;7.78;;
5014;SDS011;2526;51.060;4.228;2022-08-04T10:27:04;6.53;;;4.45;;
5014;SDS011;2526;51.060;4.228;2022-08-04T10:32:44;10.75;;;6.65;;
5014;SDS011;2526;51.060;4.228;2022-08-04T10:35:06;6.57;;;4.85;;
5014;SDS011;2526;51.060;4.228;2022-08-04T10:37:41;8.15;;;6.20;;
5014;SDS011;2526;51.060;4.228;2022-08-04T10:40:09;12.18;;;5.15;;
5014;SDS011;2526;51.060;4.228;2022-08-04T10:42:59;8.27;;;4.95;;
5014;SDS011;2526;51.060;4.228;2022-08-04T10:45:28;31.65;;;5.60;;
5014;SDS011;2526;51.060;4.228;2022-08-04T10:48:17;5.05;;;3.85;;
5014;SDS011;2526;51.060;4.228;2022-08-04T10:50:47;5.72;;;3.80;;
5014;SDS011;2526;51.060;4.228;2022-08-04T10:53:16;7.80;;;4.38;;
5014;SDS011;2526;51.060;4.228;2022-08-04T10:55:45;5.47;;;3.95;;
5014;SDS011;2526;51.060;4.228;2022-08-04T10:58:15;13.23;;;4.72;;
5014;SDS011;2526;51.060;4.228;2022-08-04T11:00:43;6.82;;;3.42;;
5014;SDS011;2526;51.060;4.228;2022-08-04T11:03:18;7.88;;;3.50;;
5014;SDS011;2526;51.060;4.228;2022-08-04T11:05:48;5.57;;;4.22;;
5014;SDS011;2526;51.060;4.228;2022-08-04T11:08:14;4.65;;;2.85;;
5014;SDS011;2526;51.060;4.228;2022-08-04T11:10:44;5.55;;;3.55;;
5014;SDS011;2526;51.060;4.228;2022-08-04T11:13:12;8.40;;;4.32;;
5014;SDS011;2526;51.060;4.228;2022-08-04T11:15:40;6.95;;;4.28;;
5014;SDS011;2526;51.060;4.228;2022-08-04T11:18:11;7.00;;;3.80;;
5014;SDS011;2526;51.060;4.228;2022-08-04T11:20:42;4.90;;;3.53;;
5014;SDS011;2526;51.060;4.228;2022-08-04T11:23:12;7.45;;;5.10;;
5014;SDS011;2526;51.060;4.228;2022-08-04T11:25:48;4.53;;;4.07;;
5014;SDS011;2526;51.060;4.228;2022-08-04T11:38:32;6.45;;;3.35;;
5014;SDS011;2526;51.060;4.228;2022-08-04T11:41:04;9.63;;;3.83;;
5014;SDS011;2526;51.060;4.228;2022-08-04T11:43:41;5.63;;;3.60;;
5014;SDS011;2526;51.060;4.228;2022-08-04T11:46:12;14.75;;;4.40;;
5014;SDS011;2526;51.060;4.228;2022-08-04T11:48:44;5.45;;;3.05;;
5014;SDS011;2526;51.060;4.228;2022-08-04T11:51:13;7.43;;;4.45;;
5014;SDS011;2526;51.060;4.228;2022-08-04T11:53:40;10.88;;;4.18;;
5014;SDS011;2526;51.060;4.228;2022-08-04T11:56:09;4.20;;;3.30;;
5014;SDS011;2526;51.060;4.228;2022-08-04T11:58:36;6.53;;;3.63;;
5014;SDS011;2526;51.060;4.228;2022-08-04T12:03:33;8.52;;;4.00;;
5014;SDS011;2526;51.060;4.228;2022-08-04T12:18:40;5.68;;;3.22;;
5014;SDS011;2526;51.060;4.228;2022-08-04T12:21:11;11.88;;;2.50;;
5014;SDS011;2526;51.060;4.228;2022-08-04T12:23:39;5.22;;;3.72;;
5014;SDS011;2526;51.060;4.228;2022-08-04T12:26:06;4.47;;;3.72;;
5014;SDS011;2526;51.060;4.228;2022-08-04T12:28:34;9.20;;;3.00;;
5014;SDS011;2526;51.060;4.228;2022-08-04T12:36:14;5.32;;;3.53;;
5014;SDS011;2526;51.060;4.228;2022-08-04T12:39:05;11.30;;;5.32;;
5014;SDS011;2526;51.060;4.228;2022-08-04T12:41:28;7.80;;;4.57;;
5014;SDS011;2526;51.060;4.228;2022-08-04T12:43:56;4.07;;;2.95;;
5014;SDS011;2526;51.060;4.228;2022-08-04T12:46:28;13.10;;;2.85;;
5014;SDS011;2526;51.060;4.228;2022-08-04T12:49:02;7.18;;;3.20;;
5014;SDS011;2526;51.060;4.228;2022-08-04T12:51:28;4.80;;;3.08;;
5014;SDS011;2526;51.060;4.228;2022-08-04T12:54:00;6.20;;;3.78;;
5014;SDS011;2526;51.060;4.228;2022-08-04T12:56:27;5.45;;;3.15;;
5014;SDS011;2526;51.060;4.228;2022-08-04T12:58:59;14.00;;;4.35;;
5014;SDS011;2526;51.060;4.228;2022-08-04T13:01:25;4.95;;;3.08;;
5014;SDS011;2526;51.060;4.228;2022-08-04T13:03:59;4.93;;;2.70;;
5014;SDS011;2526;51.060;4.228;2022-08-04T13:06:35;11.13;;;4.20;;
5014;SDS011;2526;51.060;4.228;2022-08-04T13:09:08;6.95;;;3.40;;
5014;SDS011;2526;51.060;4.228;2022-08-04T13:11:41;8.77;;;2.45;;
5014;SDS011;2526;51.060;4.228;2022-08-04T13:14:08;5.13;;;2.17;;
5014;SDS011;2526;51.060;4.228;2022-08-04T13:16:34;1.90;;;1.48;;
5014;SDS011;2526;51.060;4.228;2022-08-04T13:18:59;3.08;;;2.03;;
5014;SDS011;2526;51.060;4.228;2022-08-04T13:21:26;4.30;;;2.40;;
5014;SDS011;2526;51.060;4.228;2022-08-04T13:23:53;4.85;;;2.65;;
5014;SDS011;2526;51.060;4.228;2022-08-04T13:26:20;5.57;;;1.75;;
5014;SDS011;2526;51.060;4.228;2022-08-04T13:28:47;5.22;;;2.05;;
5014;SDS011;2526;51.060;4.228;2022-08-04T13:31:13;4.18;;;2.20;;
5014;SDS011;2526;51.060;4.228;2022-08-04T13:33:40;3.03;;;2.00;;
5014;SDS011;2526;51.060;4.228;2022-08-04T13:36:06;5.35;;;1.95;;
5014;SDS011;2526;51.060;4.228;2022-08-04T13:38:32;4.85;;;1.83;;
5014;SDS011;2526;51.060;4.228;2022-08-04T13:40:59;4.45;;;2.83;;
5014;SDS011;2526;51.060;4.228;2022-08-04T13:43:27;4.18;;;1.90;;
5014;SDS011;2526;51.060;4.228;2022-08-04T13:46:03;3.72;;;1.63;;
5014;SDS011;2526;51.060;4.228;2022-08-04T13:48:31;11.18;;;2.42;;
5014;SDS011;2526;51.060;4.228;2022-08-04T13:50:57;2.88;;;2.05;;
5014;SDS011;2526;51.060;4.228;2022-08-04T13:53:29;6.35;;;1.98;;
5014;SDS011;2526;51.060;4.228;2022-08-04T13:55:55;3.40;;;1.90;;
5014;SDS011;2526;51.060;4.228;2022-08-04T13:58:22;3.22;;;1.45;;
5014;SDS011;2526;51.060;4.228;2022-08-04T14:00:52;7.35;;;1.90;;
5014;SDS011;2526;51.060;4.228;2022-08-04T14:03:28;3.65;;;1.27;;
5014;SDS011;2526;51.060;4.228;2022-08-04T14:08:59;1.40;;;1.20;;
5014;SDS011;2526;51.060;4.228;2022-08-04T14:11:38;3.22;;;1.85;;
5014;SDS011;2526;51.060;4.228;2022-08-04T14:14:24;1.63;;;1.33;;
5014;SDS011;2526;51.060;4.228;2022-08-04T14:16:53;3.45;;;2.15;;
5014;SDS011;2526;51.060;4.228;2022-08-04T14:19:19;1.95;;;1.38;;
5014;SDS011;2526;51.060;4.228;2022-08-04T14:21:44;2.25;;;1.67;;
5014;SDS011;2526;51.060;4.228;2022-08-04T14:24:10;1.65;;;1.50;;
5014;SDS011;2526;51.060;4.228;2022-08-04T14:26:35;8.43;;;1.80;;
5014;SDS011;2526;51.060;4.228;2022-08-04T14:29:11;7.82;;;1.48;;
5014;SDS011;2526;51.060;4.228;2022-08-04T14:31:38;3.25;;;1.25;;
5014;SDS011;2526;51.060;4.228;2022-08-04T14:34:03;1.85;;;1.35;;
5014;SDS011;2526;51.060;4.228;2022-08-04T14:36:37;3.33;;;2.17;;
5014;SDS011;2526;51.060;4.228;2022-08-04T14:39:02;2.50;;;1.73;;
5014;SDS011;2526;51.060;4.228;2022-08-04T14:41:30;6.90;;;1.75;;
5014;SDS011;2526;51.060;4.228;2022-08-04T14:44:07;6.90;;;1.38;;
5014;SDS011;2526;51.060;4.228;2022-08-04T14:46:33;1.65;;;1.15;;
5014;SDS011;2526;51.060;4.228;2022-08-04T14:49:08;3.65;;;1.27;;
5014;SDS011;2526;51.060;4.228;2022-08-04T14:51:34;2.10;;;1.08;;
5014;SDS011;2526;51.060;4.228;2022-08-04T14:54:00;2.42;;;1.50;;
5014;SDS011;2526;51.060;4.228;2022-08-04T14:56:26;9.35;;;1.58;;
5014;SDS011;2526;51.060;4.228;2022-08-04T14:58:58;4.28;;;1.70;;
5014;SDS011;2526;51.060;4.228;2022-08-04T15:01:24;2.90;;;1.52;;
5014;SDS011;2526;51.060;4.228;2022-08-04T15:03:51;2.03;;;1.35;;
5014;SDS011;2526;51.060;4.228;2022-08-04T15:06:25;2.60;;;1.40;;
5014;SDS011;2526;51.060;4.228;2022-08-04T15:08:51;15.10;;;2.73;;
5014;SDS011;2526;51.060;4.228;2022-08-04T15:11:17;2.60;;;1.73;;
5014;SDS011;2526;51.060;4.228;2022-08-04T15:13:43;1.50;;;1.25;;
5014;SDS011;2526;51.060;4.228;2022-08-04T15:16:09;2.38;;;1.35;;
5014;SDS011;2526;51.060;4.228;2022-08-04T15:18:35;2.28;;;1.55;;
5014;SDS011;2526;51.060;4.228;2022-08-04T15:21:01;4.07;;;1.13;;
5014;SDS011;2526;51.060;4.228;2022-08-04T15:23:27;9.25;;;2.35;;
5014;SDS011;2526;51.060;4.228;2022-08-04T15:25:53;0.93;;;0.70;;
5014;SDS011;2526;51.060;4.228;2022-08-04T15:28:20;1.35;;;0.93;;
5014;SDS011;2526;51.060;4.228;2022-08-04T15:30:47;2.15;;;1.27;;
5014;SDS011;2526;51.060;4.228;2022-08-04T15:33:14;1.65;;;1.02;;
5014;SDS011;2526;51.060;4.228;2022-08-04T15:35:42;3.53;;;1.40;;
5014;SDS011;2526;51.060;4.228;2022-08-04T15:38:15;1.02;;;0.63;;
5014;SDS011;2526;51.060;4.228;2022-08-04T15:46:05;1.08;;;0.70;;
5014;SDS011;2526;51.060;4.228;2022-08-04T15:48:31;3.17;;;1.13;;
5014;SDS011;2526;51.060;4.228;2022-08-04T15:53:23;2.10;;;1.25;;
5014;SDS011;2526;51.060;4.228;2022-08-04T15:55:48;4.47;;;1.10;;
5014;SDS011;2526;51.060;4.228;2022-08-04T15:58:15;5.15;;;1.25;;
5014;SDS011;2526;51.060;4.228;2022-08-04T16:05:56;1.83;;;0.77;;
5014;SDS011;2526;51.060;4.228;2022-08-04T16:08:21;2.80;;;1.88;;
5014;SDS011;2526;51.060;4.228;2022-08-04T16:10:48;3.45;;;1.45;;
5014;SDS011;2526;51.060;4.228;2022-08-04T16:13:15;3.75;;;1.10;;
5014;SDS011;2526;51.060;4.228;2022-08-04T16:18:07;4.35;;;0.80;;
5014;SDS011;2526;51.060;4.228;2022-08-04T16:20:32;7.18;;;1.48;;
5014;SDS011;2526;51.060;4.228;2022-08-04T16:23:00;3.38;;;1.38;;
5014;SDS011;2526;51.060;4.228;2022-08-04T16:25:43;2.30;;;1.50;;
5014;SDS011;2526;51.060;4.228;2022-08-04T16:30:59;2.58;;;1.25;;
5014;SDS011;2526;51.060;4.228;2022-08-04T16:33:29;1.30;;;1.20;;
5014;SDS011;2526;51.060;4.228;2022-08-04T16:35:55;4.75;;;1.33;;
5014;SDS011;2526;51.060;4.228;2022-08-04T16:38:21;2.30;;;1.25;;
5014;SDS011;2526;51.060;4.228;2022-08-04T16:40:57;4.43;;;1.52;;
5014;SDS011;2526;51.060;4.228;2022-08-04T16:43:26;4.72;;;1.52;;
5014;SDS011;2526;51.060;4.228;2022-08-04T16:45:55;2.35;;;1.33;;
5014;SDS011;2526;51.060;4.228;2022-08-04T16:53:17;2.67;;;1.13;;
5014;SDS011;2526;51.060;4.228;2022-08-04T16:55:47;7.20;;;1.20;;
5014;SDS011;2526;51.060;4.228;2022-08-04T16:58:13;1.25;;;1.10;;
5014;SDS011;2526;51.060;4.228;2022-08-04T17:00:39;4.05;;;1.42;;
5014;SDS011;2526;51.060;4.228;2022-08-04T17:03:06;3.10;;;2.00;;
5014;SDS011;2526;51.060;4.228;2022-08-04T17:05:33;5.65;;;1.23;;
5014;SDS011;2526;51.060;4.228;2022-08-04T17:07:59;2.08;;;1.00;;
5014;SDS011;2526;51.060;4.228;2022-08-04T17:12:58;8.32;;;1.98;;
5014;SDS011;2526;51.060;4.228;2022-08-04T17:15:24;1.55;;;1.02;;
5014;SDS011;2526;51.060;4.228;2022-08-04T17:17:50;1.98;;;1.30;;
5014;SDS011;2526;51.060;4.228;2022-08-04T17:20:15;3.33;;;1.67;;
5014;SDS011;2526;51.060;4.228;2022-08-04T17:22:41;8.38;;;1.80;;
5014;SDS011;2526;51.060;4.228;2022-08-04T17:25:07;2.33;;;1.33;;
5014;SDS011;2526;51.060;4.228;2022-08-04T17:27:32;1.92;;;1.27;;
5014;SDS011;2526;51.060;4.228;2022-08-04T17:29:58;6.57;;;1.85;;
5014;SDS011;2526;51.060;4.228;2022-08-04T17:32:24;11.52;;;1.65;;
5014;SDS011;2526;51.060;4.228;2022-08-04T17:34:50;7.78;;;2.25;;
5014;SDS011;2526;51.060;4.228;2022-08-04T17:37:16;3.28;;;1.58;;
5014;SDS011;2526;51.060;4.228;2022-08-04T17:39:42;5.10;;;1.52;;
5014;SDS011;2526;51.060;4.228;2022-08-04T17:42:08;4.65;;;2.03;;
5014;SDS011;2526;51.060;4.228;2022-08-04T17:44:36;10.43;;;1.23;;
5014;SDS011;2526;51.060;4.228;2022-08-04T17:47:17;4.05;;;1.30;;
5014;SDS011;2526;51.060;4.228;2022-08-04T17:49:43;1.80;;;1.02;;
5014;SDS011;2526;51.060;4.228;2022-08-04T17:52:18;1.83;;;1.15;;
5014;SDS011;2526;51.060;4.228;2022-08-04T17:54:43;4.47;;;1.45;;
5014;SDS011;2526;51.060;4.228;2022-08-04T17:57:16;7.93;;;1.42;;
5014;SDS011;2526;51.060;4.228;2022-08-04T17:59:43;1.02;;;0.95;;
5014;SDS011;2526;51.060;4.228;2022-08-04T18:02:09;2.40;;;0.88;;
5014;SDS011;2526;51.060;4.228;2022-08-04T18:04:38;5.97;;;1.38;;
5014;SDS011;2526;51.060;4.228;2022-08-04T18:12:12;0.88;;;0.75;;
5014;SDS011;2526;51.060;4.228;2022-08-04T18:14:46;6.88;;;1.08;;
5014;SDS011;2526;51.060;4.228;2022-08-04T18:17:12;5.75;;;2.08;;
5014;SDS011;2526;51.060;4.228;2022-08-04T18:19:51;1.25;;;0.95;;
5014;SDS011;2526;51.060;4.228;2022-08-04T18:22:17;1.17;;;0.98;;
5014;SDS011;2526;51.060;4.228;2022-08-04T18:24:42;5.53;;;0.70;;
5014;SDS011;2526;51.060;4.228;2022-08-04T18:27:08;1.92;;;1.08;;
5014;SDS011;2526;51.060;4.228;2022-08-04T18:29:34;4.30;;;1.48;;
5014;SDS011;2526;51.060;4.228;2022-08-04T18:31:59;1.60;;;1.02;;
5014;SDS011;2526;51.060;4.228;2022-08-04T18:34:25;3.45;;;1.30;;
5014;SDS011;2526;51.060;4.228;2022-08-04T18:36:50;2.70;;;1.05;;
5014;SDS011;2526;51.060;4.228;2022-08-04T18:39:16;1.85;;;0.88;;
5014;SDS011;2526;51.060;4.228;2022-08-04T18:41:42;2.65;;;1.27;;
5014;SDS011;2526;51.060;4.228;2022-08-04T18:44:08;5.75;;;1.65;;
5014;SDS011;2526;51.060;4.228;2022-08-04T18:46:33;4.97;;;1.20;;
5014;SDS011;2526;51.060;4.228;2022-08-04T18:48:59;2.00;;;0.93;;
5014;SDS011;2526;51.060;4.228;2022-08-04T18:51:24;2.92;;;0.75;;
5014;SDS011;2526;51.060;4.228;2022-08-04T18:53:50;0.80;;;0.68;;
5014;SDS011;2526;51.060;4.228;2022-08-04T18:56:16;4.65;;;1.80;;
5014;SDS011;2526;51.060;4.228;2022-08-04T18:58:42;4.38;;;1.58;;
5014;SDS011;2526;51.060;4.228;2022-08-04T19:01:07;6.47;;;1.10;;
5014;SDS011;2526;51.060;4.228;2022-08-04T19:03:34;2.72;;;0.88;;
5014;SDS011;2526;51.060;4.228;2022-08-04T19:06:00;4.07;;;1.10;;
5014;SDS011;2526;51.060;4.228;2022-08-04T19:08:26;1.38;;;0.77;;
5014;SDS011;2526;51.060;4.228;2022-08-04T19:10:52;2.22;;;0.73;;
5014;SDS011;2526;51.060;4.228;2022-08-04T19:13:17;3.15;;;1.17;;
5014;SDS011;2526;51.060;4.228;2022-08-04T19:15:42;4.97;;;1.27;;
5014;SDS011;2526;51.060;4.228;2022-08-04T19:18:08;4.82;;;0.95;;
5014;SDS011;2526;51.060;4.228;2022-08-04T19:20:33;2.22;;;1.13;;
5014;SDS011;2526;51.060;4.228;2022-08-04T19:22:59;5.47;;;0.73;;
5014;SDS011;2526;51.060;4.228;2022-08-04T19:25:24;5.72;;;2.28;;
5014;SDS011;2526;51.060;4.228;2022-08-04T19:27:50;10.40;;;1.25;;
5014;SDS011;2526;51.060;4.228;2022-08-04T19:30:15;5.47;;;1.48;;
5014;SDS011;2526;51.060;4.228;2022-08-04T19:32:41;6.88;;;1.25;;
5014;SDS011;2526;51.060;4.228;2022-08-04T19:35:06;1.70;;;0.82;;
5014;SDS011;2526;51.060;4.228;2022-08-04T19:37:31;2.53;;;0.95;;
5014;SDS011;2526;51.060;4.228;2022-08-04T19:39:57;4.65;;;1.25;;
5014;SDS011;2526;51.060;4.228;2022-08-04T19:42:23;2.13;;;1.13;;
5014;SDS011;2526;51.060;4.228;2022-08-04T19:44:48;3.92;;;0.70;;